sensor_id;sensor_type;location;lat;lon;timestamp;P1;durP1;ratioP1;P2;durP2;ratioP2
35026;SDS011;60696;51.426;6.934;2023-02-19T00:01:11;19.77;;;14.05;;
35026;SDS011;60696;51.426;6.934;2023-02-19T00:03:37;24.20;;;14.13;;
35026;SDS011;60696;51.426;6.934;2023-02-19T00:06:04;17.02;;;12.30;;
35026;SDS011;60696;51.426;6.934;2023-02-19T00:08:31;18.88;;;13.00;;
35026;SDS011;60696;51.426;6.934;2023-02-19T00:11:08;22.55;;;11.45;;
35026;SDS011;60696;51.426;6.934;2023-02-19T00:13:37;21.60;;;12.90;;
35026;SDS011;60696;51.426;6.934;2023-02-19T00:16:07;20.60;;;11.02;;
35026;SDS011;60696;51.426;6.934;2023-02-19T00:21:02;15.48;;;10.98;;
35026;SDS011;60696;51.426;6.934;2023-02-19T00:23:28;15.60;;;11.07;;
35026;SDS011;60696;51.426;6.934;2023-02-19T00:25:54;14.95;;;10.57;;
35026;SDS011;60696;51.426;6.934;2023-02-19T00:28:19;20.45;;;11.00;;
35026;SDS011;60696;51.426;6.934;2023-02-19T00:30:46;18.23;;;12.57;;
35026;SDS011;60696;51.426;6.934;2023-02-19T00:33:12;14.88;;;10.52;;
35026;SDS011;60696;51.426;6.934;2023-02-19T00:35:37;19.73;;;14.23;;
35026;SDS011;60696;51.426;6.934;2023-02-19T00:38:03;21.35;;;14.10;;
35026;SDS011;60696;51.426;6.934;2023-02-19T00:40:29;23.70;;;15.00;;
35026;SDS011;60696;51.426;6.934;2023-02-19T00:42:54;20.42;;;14.07;;
35026;SDS011;60696;51.426;6.934;2023-02-19T00:45:20;18.80;;;12.85;;
35026;SDS011;60696;51.426;6.934;2023-02-19T00:47:46;19.98;;;12.38;;
35026;SDS011;60696;51.426;6.934;2023-02-19T00:50:11;18.67;;;11.63;;
35026;SDS011;60696;51.426;6.934;2023-02-19T00:52:38;12.45;;;9.95;;
35026;SDS011;60696;51.426;6.934;2023-02-19T00:55:03;23.17;;;13.85;;
35026;SDS011;60696;51.426;6.934;2023-02-19T00:57:29;18.33;;;11.85;;
35026;SDS011;60696;51.426;6.934;2023-02-19T00:59:55;21.40;;;15.13;;
35026;SDS011;60696;51.426;6.934;2023-02-19T01:02:21;19.30;;;12.77;;
35026;SDS011;60696;51.426;6.934;2023-02-19T01:04:46;21.45;;;13.55;;
35026;SDS011;60696;51.426;6.934;2023-02-19T01:07:12;20.83;;;15.43;;
35026;SDS011;60696;51.426;6.934;2023-02-19T01:09:37;19.27;;;13.60;;
35026;SDS011;60696;51.426;6.934;2023-02-19T01:12:04;19.58;;;12.90;;
35026;SDS011;60696;51.426;6.934;2023-02-19T01:14:30;20.15;;;12.52;;
35026;SDS011;60696;51.426;6.934;2023-02-19T01:16:55;22.42;;;14.32;;
35026;SDS011;60696;51.426;6.934;2023-02-19T01:19:21;19.73;;;12.95;;
35026;SDS011;60696;51.426;6.934;2023-02-19T01:21:46;19.35;;;13.50;;
35026;SDS011;60696;51.426;6.934;2023-02-19T01:24:12;18.98;;;12.90;;
35026;SDS011;60696;51.426;6.934;2023-02-19T01:26:38;20.65;;;12.73;;
35026;SDS011;60696;51.426;6.934;2023-02-19T01:29:04;20.35;;;11.45;;
35026;SDS011;60696;51.426;6.934;2023-02-19T01:31:30;16.20;;;10.60;;
35026;SDS011;60696;51.426;6.934;2023-02-19T01:33:57;18.70;;;12.10;;
35026;SDS011;60696;51.426;6.934;2023-02-19T01:36:25;20.17;;;11.77;;
35026;SDS011;60696;51.426;6.934;2023-02-19T01:38:51;19.42;;;12.25;;
35026;SDS011;60696;51.426;6.934;2023-02-19T01:41:19;20.33;;;12.05;;
35026;SDS011;60696;51.426;6.934;2023-02-19T01:43:57;15.73;;;10.68;;
35026;SDS011;60696;51.426;6.934;2023-02-19T01:46:27;17.35;;;11.27;;
35026;SDS011;60696;51.426;6.934;2023-02-19T01:48:53;20.52;;;12.98;;
35026;SDS011;60696;51.426;6.934;2023-02-19T01:51:22;18.63;;;10.75;;
35026;SDS011;60696;51.426;6.934;2023-02-19T01:53:51;19.77;;;11.95;;
35026;SDS011;60696;51.426;6.934;2023-02-19T01:56:19;16.90;;;10.27;;
35026;SDS011;60696;51.426;6.934;2023-02-19T01:58:46;18.83;;;12.13;;
35026;SDS011;60696;51.426;6.934;2023-02-19T02:01:12;19.45;;;10.90;;
35026;SDS011;60696;51.426;6.934;2023-02-19T02:03:38;22.20;;;13.18;;
35026;SDS011;60696;51.426;6.934;2023-02-19T02:08:54;29.02;;;12.82;;
35026;SDS011;60696;51.426;6.934;2023-02-19T02:11:50;21.27;;;10.43;;
35026;SDS011;60696;51.426;6.934;2023-02-19T02:14:17;21.85;;;13.35;;
35026;SDS011;60696;51.426;6.934;2023-02-19T02:22:17;22.83;;;13.00;;
35026;SDS011;60696;51.426;6.934;2023-02-19T02:27:24;25.23;;;14.55;;
35026;SDS011;60696;51.426;6.934;2023-02-19T02:30:19;23.65;;;11.88;;
35026;SDS011;60696;51.426;6.934;2023-02-19T02:35:33;20.77;;;11.85;;
35026;SDS011;60696;51.426;6.934;2023-02-19T02:38:22;23.83;;;12.85;;
35026;SDS011;60696;51.426;6.934;2023-02-19T02:40:51;30.48;;;14.50;;
35026;SDS011;60696;51.426;6.934;2023-02-19T02:43:19;28.50;;;14.63;;
35026;SDS011;60696;51.426;6.934;2023-02-19T02:45:45;30.00;;;14.13;;
35026;SDS011;60696;51.426;6.934;2023-02-19T02:48:15;23.45;;;11.98;;
35026;SDS011;60696;51.426;6.934;2023-02-19T02:50:44;31.48;;;13.90;;
35026;SDS011;60696;51.426;6.934;2023-02-19T02:53:31;34.63;;;15.00;;
35026;SDS011;60696;51.426;6.934;2023-02-19T02:56:21;20.25;;;12.23;;
35026;SDS011;60696;51.426;6.934;2023-02-19T02:58:49;29.80;;;12.43;;
35026;SDS011;60696;51.426;6.934;2023-02-19T03:01:22;29.10;;;13.80;;
35026;SDS011;60696;51.426;6.934;2023-02-19T03:04:13;25.98;;;13.15;;
35026;SDS011;60696;51.426;6.934;2023-02-19T03:06:46;26.92;;;12.07;;
35026;SDS011;60696;51.426;6.934;2023-02-19T03:09:23;32.03;;;12.63;;
35026;SDS011;60696;51.426;6.934;2023-02-19T03:12:04;22.80;;;11.77;;
35026;SDS011;60696;51.426;6.934;2023-02-19T03:14:52;29.80;;;11.25;;
35026;SDS011;60696;51.426;6.934;2023-02-19T03:17:43;21.95;;;11.20;;
35026;SDS011;60696;51.426;6.934;2023-02-19T03:20:31;23.20;;;10.55;;
35026;SDS011;60696;51.426;6.934;2023-02-19T03:22:59;13.00;;;7.38;;
35026;SDS011;60696;51.426;6.934;2023-02-19T03:25:27;19.92;;;9.07;;
35026;SDS011;60696;51.426;6.934;2023-02-19T03:28:14;16.38;;;8.35;;
35026;SDS011;60696;51.426;6.934;2023-02-19T03:30:46;25.67;;;10.13;;
35026;SDS011;60696;51.426;6.934;2023-02-19T03:33:17;23.17;;;11.18;;
35026;SDS011;60696;51.426;6.934;2023-02-19T03:35:51;19.40;;;9.05;;
35026;SDS011;60696;51.426;6.934;2023-02-19T03:38:24;16.40;;;8.35;;
35026;SDS011;60696;51.426;6.934;2023-02-19T03:41:08;13.60;;;5.55;;
35026;SDS011;60696;51.426;6.934;2023-02-19T03:47:21;18.02;;;8.98;;
35026;SDS011;60696;51.426;6.934;2023-02-19T03:49:53;18.48;;;9.68;;
35026;SDS011;60696;51.426;6.934;2023-02-19T03:52:38;18.88;;;8.18;;
35026;SDS011;60696;51.426;6.934;2023-02-19T03:55:07;16.88;;;8.25;;
35026;SDS011;60696;51.426;6.934;2023-02-19T04:00:17;17.88;;;9.13;;
35026;SDS011;60696;51.426;6.934;2023-02-19T04:02:57;17.58;;;7.60;;
35026;SDS011;60696;51.426;6.934;2023-02-19T04:05:28;16.05;;;7.68;;
35026;SDS011;60696;51.426;6.934;2023-02-19T04:07:57;26.75;;;9.13;;
35026;SDS011;60696;51.426;6.934;2023-02-19T04:10:27;19.85;;;8.88;;
35026;SDS011;60696;51.426;6.934;2023-02-19T04:12:55;24.15;;;8.95;;
35026;SDS011;60696;51.426;6.934;2023-02-19T04:15:28;23.13;;;8.98;;
35026;SDS011;60696;51.426;6.934;2023-02-19T04:17:58;15.95;;;8.18;;
35026;SDS011;60696;51.426;6.934;2023-02-19T04:20:28;17.75;;;8.85;;
35026;SDS011;60696;51.426;6.934;2023-02-19T04:22:58;16.40;;;8.60;;
35026;SDS011;60696;51.426;6.934;2023-02-19T04:25:23;17.15;;;8.30;;
35026;SDS011;60696;51.426;6.934;2023-02-19T04:27:51;19.25;;;9.07;;
35026;SDS011;60696;51.426;6.934;2023-02-19T04:30:19;20.00;;;9.43;;
35026;SDS011;60696;51.426;6.934;2023-02-19T04:32:45;18.90;;;8.07;;
35026;SDS011;60696;51.426;6.934;2023-02-19T04:35:11;19.30;;;7.70;;
35026;SDS011;60696;51.426;6.934;2023-02-19T04:37:36;14.88;;;7.75;;
35026;SDS011;60696;51.426;6.934;2023-02-19T04:40:02;12.07;;;6.88;;
35026;SDS011;60696;51.426;6.934;2023-02-19T04:42:28;15.13;;;7.50;;
35026;SDS011;60696;51.426;6.934;2023-02-19T04:44:53;18.45;;;7.40;;
35026;SDS011;60696;51.426;6.934;2023-02-19T04:47:19;15.13;;;6.32;;
35026;SDS011;60696;51.426;6.934;2023-02-19T04:49:44;19.05;;;7.50;;
35026;SDS011;60696;51.426;6.934;2023-02-19T04:52:10;17.70;;;6.53;;
35026;SDS011;60696;51.426;6.934;2023-02-19T04:54:36;16.30;;;6.40;;
35026;SDS011;60696;51.426;6.934;2023-02-19T04:57:01;13.60;;;7.10;;
35026;SDS011;60696;51.426;6.934;2023-02-19T04:59:27;10.95;;;5.82;;
35026;SDS011;60696;51.426;6.934;2023-02-19T05:01:53;22.58;;;7.07;;
35026;SDS011;60696;51.426;6.934;2023-02-19T05:04:19;16.63;;;7.32;;
35026;SDS011;60696;51.426;6.934;2023-02-19T05:06:44;18.23;;;8.65;;
35026;SDS011;60696;51.426;6.934;2023-02-19T05:09:10;15.52;;;7.25;;
35026;SDS011;60696;51.426;6.934;2023-02-19T05:11:36;15.73;;;7.93;;
35026;SDS011;60696;51.426;6.934;2023-02-19T05:14:01;16.67;;;8.15;;
35026;SDS011;60696;51.426;6.934;2023-02-19T05:16:27;18.13;;;8.02;;
35026;SDS011;60696;51.426;6.934;2023-02-19T05:18:53;18.45;;;7.85;;
35026;SDS011;60696;51.426;6.934;2023-02-19T05:21:18;15.02;;;5.90;;
35026;SDS011;60696;51.426;6.934;2023-02-19T05:23:44;20.55;;;7.97;;
35026;SDS011;60696;51.426;6.934;2023-02-19T05:26:14;20.98;;;7.68;;
35026;SDS011;60696;51.426;6.934;2023-02-19T05:28:46;21.58;;;6.90;;
35026;SDS011;60696;51.426;6.934;2023-02-19T05:31:14;17.15;;;8.48;;
35026;SDS011;60696;51.426;6.934;2023-02-19T05:33:40;14.00;;;7.63;;
35026;SDS011;60696;51.426;6.934;2023-02-19T05:36:07;19.67;;;7.47;;
35026;SDS011;60696;51.426;6.934;2023-02-19T05:38:37;15.32;;;7.25;;
35026;SDS011;60696;51.426;6.934;2023-02-19T05:41:11;16.17;;;6.68;;
35026;SDS011;60696;51.426;6.934;2023-02-19T05:43:38;18.15;;;7.40;;
35026;SDS011;60696;51.426;6.934;2023-02-19T05:46:05;16.25;;;7.47;;
35026;SDS011;60696;51.426;6.934;2023-02-19T05:48:32;16.40;;;6.80;;
35026;SDS011;60696;51.426;6.934;2023-02-19T05:51:05;15.77;;;7.22;;
35026;SDS011;60696;51.426;6.934;2023-02-19T05:53:33;16.75;;;6.93;;
35026;SDS011;60696;51.426;6.934;2023-02-19T05:55:59;13.75;;;6.43;;
35026;SDS011;60696;51.426;6.934;2023-02-19T05:58:24;11.63;;;6.13;;
35026;SDS011;60696;51.426;6.934;2023-02-19T06:00:50;20.00;;;6.65;;
35026;SDS011;60696;51.426;6.934;2023-02-19T06:03:17;14.13;;;4.97;;
35026;SDS011;60696;51.426;6.934;2023-02-19T06:05:42;20.90;;;7.10;;
35026;SDS011;60696;51.426;6.934;2023-02-19T06:08:09;16.05;;;6.40;;
35026;SDS011;60696;51.426;6.934;2023-02-19T06:10:37;13.55;;;6.50;;
35026;SDS011;60696;51.426;6.934;2023-02-19T06:13:05;9.57;;;5.78;;
35026;SDS011;60696;51.426;6.934;2023-02-19T06:15:31;14.57;;;6.05;;
35026;SDS011;60696;51.426;6.934;2023-02-19T06:17:57;18.38;;;6.90;;
35026;SDS011;60696;51.426;6.934;2023-02-19T06:20:22;15.10;;;7.00;;
35026;SDS011;60696;51.426;6.934;2023-02-19T06:22:48;19.27;;;6.78;;
35026;SDS011;60696;51.426;6.934;2023-02-19T06:25:14;10.60;;;6.50;;
35026;SDS011;60696;51.426;6.934;2023-02-19T06:27:40;12.00;;;6.30;;
35026;SDS011;60696;51.426;6.934;2023-02-19T06:30:06;13.75;;;6.53;;
35026;SDS011;60696;51.426;6.934;2023-02-19T06:32:32;13.68;;;6.05;;
35026;SDS011;60696;51.426;6.934;2023-02-19T06:34:57;11.02;;;5.40;;
35026;SDS011;60696;51.426;6.934;2023-02-19T06:37:23;17.50;;;6.90;;
35026;SDS011;60696;51.426;6.934;2023-02-19T06:39:49;15.27;;;6.35;;
35026;SDS011;60696;51.426;6.934;2023-02-19T06:42:15;16.25;;;6.18;;
35026;SDS011;60696;51.426;6.934;2023-02-19T06:44:40;13.52;;;5.35;;
35026;SDS011;60696;51.426;6.934;2023-02-19T06:47:06;18.05;;;6.18;;
35026;SDS011;60696;51.426;6.934;2023-02-19T06:49:31;12.80;;;5.82;;
35026;SDS011;60696;51.426;6.934;2023-02-19T06:51:57;15.80;;;6.05;;
35026;SDS011;60696;51.426;6.934;2023-02-19T06:54:24;10.85;;;5.68;;
35026;SDS011;60696;51.426;6.934;2023-02-19T06:56:50;10.02;;;5.20;;
35026;SDS011;60696;51.426;6.934;2023-02-19T06:59:16;10.20;;;3.80;;
35026;SDS011;60696;51.426;6.934;2023-02-19T07:01:42;10.32;;;4.63;;
35026;SDS011;60696;51.426;6.934;2023-02-19T07:04:08;14.07;;;5.28;;
35026;SDS011;60696;51.426;6.934;2023-02-19T07:06:34;15.85;;;5.20;;
35026;SDS011;60696;51.426;6.934;2023-02-19T07:09:00;15.02;;;5.38;;
35026;SDS011;60696;51.426;6.934;2023-02-19T07:11:28;17.90;;;6.13;;
35026;SDS011;60696;51.426;6.934;2023-02-19T07:13:55;15.52;;;4.75;;
35026;SDS011;60696;51.426;6.934;2023-02-19T07:16:22;13.38;;;5.75;;
35026;SDS011;60696;51.426;6.934;2023-02-19T07:18:48;14.45;;;5.38;;
35026;SDS011;60696;51.426;6.934;2023-02-19T07:21:14;10.93;;;5.18;;
35026;SDS011;60696;51.426;6.934;2023-02-19T07:23:41;11.52;;;5.45;;
35026;SDS011;60696;51.426;6.934;2023-02-19T07:26:08;10.40;;;5.53;;
35026;SDS011;60696;51.426;6.934;2023-02-19T07:28:35;15.45;;;6.57;;
35026;SDS011;60696;51.426;6.934;2023-02-19T07:31:01;12.75;;;5.13;;
35026;SDS011;60696;51.426;6.934;2023-02-19T07:33:28;8.65;;;5.13;;
35026;SDS011;60696;51.426;6.934;2023-02-19T07:35:53;11.65;;;6.03;;
35026;SDS011;60696;51.426;6.934;2023-02-19T07:38:20;19.27;;;6.40;;
35026;SDS011;60696;51.426;6.934;2023-02-19T07:40:53;13.05;;;5.78;;
35026;SDS011;60696;51.426;6.934;2023-02-19T07:43:21;12.90;;;5.72;;
35026;SDS011;60696;51.426;6.934;2023-02-19T07:45:47;12.00;;;5.82;;
35026;SDS011;60696;51.426;6.934;2023-02-19T07:48:13;14.23;;;6.78;;
35026;SDS011;60696;51.426;6.934;2023-02-19T07:50:39;16.80;;;5.80;;
35026;SDS011;60696;51.426;6.934;2023-02-19T07:53:05;18.90;;;6.82;;
35026;SDS011;60696;51.426;6.934;2023-02-19T07:55:31;13.27;;;6.05;;
35026;SDS011;60696;51.426;6.934;2023-02-19T07:57:57;16.40;;;6.47;;
35026;SDS011;60696;51.426;6.934;2023-02-19T08:00:24;14.63;;;7.15;;
35026;SDS011;60696;51.426;6.934;2023-02-19T08:02:50;14.60;;;6.50;;
35026;SDS011;60696;51.426;6.934;2023-02-19T08:05:29;12.63;;;6.70;;
35026;SDS011;60696;51.426;6.934;2023-02-19T08:08:01;16.45;;;6.22;;
35026;SDS011;60696;51.426;6.934;2023-02-19T08:10:29;10.77;;;4.55;;
35026;SDS011;60696;51.426;6.934;2023-02-19T08:13:14;14.18;;;5.68;;
35026;SDS011;60696;51.426;6.934;2023-02-19T08:15:48;17.58;;;6.00;;
35026;SDS011;60696;51.426;6.934;2023-02-19T08:18:15;16.42;;;5.68;;
35026;SDS011;60696;51.426;6.934;2023-02-19T08:20:42;12.50;;;6.13;;
35026;SDS011;60696;51.426;6.934;2023-02-19T08:23:08;13.13;;;6.35;;
35026;SDS011;60696;51.426;6.934;2023-02-19T08:25:36;19.55;;;6.72;;
35026;SDS011;60696;51.426;6.934;2023-02-19T08:28:02;18.33;;;6.72;;
35026;SDS011;60696;51.426;6.934;2023-02-19T08:30:29;10.00;;;5.82;;
35026;SDS011;60696;51.426;6.934;2023-02-19T08:32:56;12.32;;;5.28;;
35026;SDS011;60696;51.426;6.934;2023-02-19T08:35:22;13.20;;;6.72;;
35026;SDS011;60696;51.426;6.934;2023-02-19T08:37:48;15.35;;;5.53;;
35026;SDS011;60696;51.426;6.934;2023-02-19T08:40:13;16.38;;;6.75;;
35026;SDS011;60696;51.426;6.934;2023-02-19T08:42:39;14.70;;;5.80;;
35026;SDS011;60696;51.426;6.934;2023-02-19T08:45:04;10.90;;;5.53;;
35026;SDS011;60696;51.426;6.934;2023-02-19T08:47:30;8.77;;;5.22;;
35026;SDS011;60696;51.426;6.934;2023-02-19T08:49:58;22.17;;;5.97;;
35026;SDS011;60696;51.426;6.934;2023-02-19T08:52:24;16.77;;;5.97;;
35026;SDS011;60696;51.426;6.934;2023-02-19T08:54:49;16.73;;;6.03;;
35026;SDS011;60696;51.426;6.934;2023-02-19T08:57:15;12.15;;;5.10;;
35026;SDS011;60696;51.426;6.934;2023-02-19T08:59:40;16.88;;;5.25;;
35026;SDS011;60696;51.426;6.934;2023-02-19T09:02:07;13.70;;;6.10;;
35026;SDS011;60696;51.426;6.934;2023-02-19T09:04:33;13.13;;;5.25;;
35026;SDS011;60696;51.426;6.934;2023-02-19T09:07:00;11.60;;;5.88;;
35026;SDS011;60696;51.426;6.934;2023-02-19T09:09:26;10.57;;;4.88;;
35026;SDS011;60696;51.426;6.934;2023-02-19T09:11:51;16.10;;;5.63;;
35026;SDS011;60696;51.426;6.934;2023-02-19T09:14:17;10.38;;;4.72;;
35026;SDS011;60696;51.426;6.934;2023-02-19T09:16:42;12.43;;;5.22;;
35026;SDS011;60696;51.426;6.934;2023-02-19T09:19:08;9.10;;;4.03;;
35026;SDS011;60696;51.426;6.934;2023-02-19T09:21:33;9.40;;;3.45;;
35026;SDS011;60696;51.426;6.934;2023-02-19T09:23:59;15.15;;;5.25;;
35026;SDS011;60696;51.426;6.934;2023-02-19T09:26:25;12.73;;;4.53;;
35026;SDS011;60696;51.426;6.934;2023-02-19T09:28:50;12.57;;;5.15;;
35026;SDS011;60696;51.426;6.934;2023-02-19T09:31:16;12.48;;;4.82;;
35026;SDS011;60696;51.426;6.934;2023-02-19T09:33:45;18.38;;;4.88;;
35026;SDS011;60696;51.426;6.934;2023-02-19T09:36:12;13.75;;;4.43;;
35026;SDS011;60696;51.426;6.934;2023-02-19T09:38:38;12.40;;;5.00;;
35026;SDS011;60696;51.426;6.934;2023-02-19T09:41:05;8.23;;;4.22;;
35026;SDS011;60696;51.426;6.934;2023-02-19T09:43:51;5.68;;;3.30;;
35026;SDS011;60696;51.426;6.934;2023-02-19T09:49:13;15.32;;;4.22;;
35026;SDS011;60696;51.426;6.934;2023-02-19T09:51:43;11.15;;;4.05;;
35026;SDS011;60696;51.426;6.934;2023-02-19T09:54:19;6.45;;;3.42;;
35026;SDS011;60696;51.426;6.934;2023-02-19T09:56:50;8.02;;;3.97;;
35026;SDS011;60696;51.426;6.934;2023-02-19T09:59:22;9.48;;;4.40;;
35026;SDS011;60696;51.426;6.934;2023-02-19T10:01:56;8.10;;;4.47;;
35026;SDS011;60696;51.426;6.934;2023-02-19T10:04:28;8.57;;;3.85;;
35026;SDS011;60696;51.426;6.934;2023-02-19T10:06:53;11.27;;;4.82;;
35026;SDS011;60696;51.426;6.934;2023-02-19T10:09:28;12.50;;;4.65;;
35026;SDS011;60696;51.426;6.934;2023-02-19T10:11:54;10.43;;;3.97;;
35026;SDS011;60696;51.426;6.934;2023-02-19T10:14:33;11.85;;;5.15;;
35026;SDS011;60696;51.426;6.934;2023-02-19T10:17:04;8.70;;;4.93;;
35026;SDS011;60696;51.426;6.934;2023-02-19T10:19:31;5.80;;;3.38;;
35026;SDS011;60696;51.426;6.934;2023-02-19T10:21:58;11.30;;;5.07;;
35026;SDS011;60696;51.426;6.934;2023-02-19T10:24:27;10.95;;;4.93;;
35026;SDS011;60696;51.426;6.934;2023-02-19T10:26:54;8.05;;;3.10;;
35026;SDS011;60696;51.426;6.934;2023-02-19T10:29:20;7.97;;;3.20;;
35026;SDS011;60696;51.426;6.934;2023-02-19T10:31:46;8.55;;;2.95;;
35026;SDS011;60696;51.426;6.934;2023-02-19T10:34:16;12.35;;;3.42;;
35026;SDS011;60696;51.426;6.934;2023-02-19T10:36:46;4.82;;;2.97;;
35026;SDS011;60696;51.426;6.934;2023-02-19T10:41:46;4.63;;;2.40;;
35026;SDS011;60696;51.426;6.934;2023-02-19T10:44:15;7.88;;;2.00;;
35026;SDS011;60696;51.426;6.934;2023-02-19T10:51:55;10.98;;;3.30;;
35026;SDS011;60696;51.426;6.934;2023-02-19T10:54:27;7.88;;;3.05;;
35026;SDS011;60696;51.426;6.934;2023-02-19T10:57:40;4.70;;;2.60;;
35026;SDS011;60696;51.426;6.934;2023-02-19T11:02:18;4.95;;;1.95;;
35026;SDS011;60696;51.426;6.934;2023-02-19T11:05:02;6.13;;;2.50;;
35026;SDS011;60696;51.426;6.934;2023-02-19T11:07:29;5.15;;;2.50;;
35026;SDS011;60696;51.426;6.934;2023-02-19T11:09:55;5.03;;;2.38;;
35026;SDS011;60696;51.426;6.934;2023-02-19T11:12:23;7.97;;;2.78;;
35026;SDS011;60696;51.426;6.934;2023-02-19T11:14:52;6.28;;;3.13;;
35026;SDS011;60696;51.426;6.934;2023-02-19T11:17:22;5.10;;;2.35;;
35026;SDS011;60696;51.426;6.934;2023-02-19T11:22:37;5.60;;;2.53;;
35026;SDS011;60696;51.426;6.934;2023-02-19T11:25:16;4.28;;;2.20;;
35026;SDS011;60696;51.426;6.934;2023-02-19T11:27:58;6.55;;;2.92;;
35026;SDS011;60696;51.426;6.934;2023-02-19T11:30:34;2.97;;;2.05;;
35026;SDS011;60696;51.426;6.934;2023-02-19T11:35:44;3.50;;;1.75;;
35026;SDS011;60696;51.426;6.934;2023-02-19T11:38:12;3.95;;;2.00;;
35026;SDS011;60696;51.426;6.934;2023-02-19T11:41:16;2.63;;;1.60;;
35026;SDS011;60696;51.426;6.934;2023-02-19T11:46:18;3.58;;;2.08;;
35026;SDS011;60696;51.426;6.934;2023-02-19T11:54:37;2.95;;;1.83;;
35026;SDS011;60696;51.426;6.934;2023-02-19T12:05:31;3.47;;;2.35;;
35026;SDS011;60696;51.426;6.934;2023-02-19T12:16:18;6.55;;;2.90;;
35026;SDS011;60696;51.426;6.934;2023-02-19T12:35:35;4.78;;;1.25;;
35026;SDS011;60696;51.426;6.934;2023-02-19T12:38:24;1.63;;;1.20;;
35026;SDS011;60696;51.426;6.934;2023-02-19T12:43:37;5.18;;;1.52;;
35026;SDS011;60696;51.426;6.934;2023-02-19T12:46:17;1.77;;;1.10;;
35026;SDS011;60696;51.426;6.934;2023-02-19T12:51:30;2.17;;;0.90;;
35026;SDS011;60696;51.426;6.934;2023-02-19T12:56:43;1.00;;;0.60;;
35026;SDS011;60696;51.426;6.934;2023-02-19T12:59:30;2.00;;;0.70;;
35026;SDS011;60696;51.426;6.934;2023-02-19T13:07:06;4.13;;;1.10;;
35026;SDS011;60696;51.426;6.934;2023-02-19T13:09:46;5.18;;;1.20;;
35026;SDS011;60696;51.426;6.934;2023-02-19T13:12:33;2.45;;;0.80;;
35026;SDS011;60696;51.426;6.934;2023-02-19T13:15:15;1.50;;;1.02;;
35026;SDS011;60696;51.426;6.934;2023-02-19T13:18:00;1.85;;;1.02;;
35026;SDS011;60696;51.426;6.934;2023-02-19T13:20:47;2.78;;;1.58;;
35026;SDS011;60696;51.426;6.934;2023-02-19T13:29:03;2.25;;;1.52;;
35026;SDS011;60696;51.426;6.934;2023-02-19T13:37:00;2.85;;;1.42;;
35026;SDS011;60696;51.426;6.934;2023-02-19T13:39:26;6.18;;;1.70;;
35026;SDS011;60696;51.426;6.934;2023-02-19T13:41:55;5.35;;;1.95;;
35026;SDS011;60696;51.426;6.934;2023-02-19T13:44:26;4.22;;;1.98;;
35026;SDS011;60696;51.426;6.934;2023-02-19T13:46:54;4.20;;;1.95;;
35026;SDS011;60696;51.426;6.934;2023-02-19T13:52:00;3.47;;;2.47;;
35026;SDS011;60696;51.426;6.934;2023-02-19T13:54:28;3.40;;;2.00;;
35026;SDS011;60696;51.426;6.934;2023-02-19T13:59:48;6.25;;;2.28;;
35026;SDS011;60696;51.426;6.934;2023-02-19T14:04:47;4.63;;;2.28;;
35026;SDS011;60696;51.426;6.934;2023-02-19T14:09:43;8.32;;;3.10;;
35026;SDS011;60696;51.426;6.934;2023-02-19T14:14:53;11.13;;;3.47;;
35026;SDS011;60696;51.426;6.934;2023-02-19T14:17:25;10.15;;;4.18;;
35026;SDS011;60696;51.426;6.934;2023-02-19T14:19:56;5.18;;;3.33;;
35026;SDS011;60696;51.426;6.934;2023-02-19T14:30:52;5.38;;;4.38;;
35026;SDS011;60696;51.426;6.934;2023-02-19T14:33:21;8.02;;;4.18;;
35026;SDS011;60696;51.426;6.934;2023-02-19T14:41:24;8.20;;;4.07;;
35026;SDS011;60696;51.426;6.934;2023-02-19T14:43:51;7.40;;;4.00;;
35026;SDS011;60696;51.426;6.934;2023-02-19T14:46:31;9.30;;;4.70;;
35026;SDS011;60696;51.426;6.934;2023-02-19T14:49:13;15.05;;;4.50;;
35026;SDS011;60696;51.426;6.934;2023-02-19T14:51:49;10.77;;;4.25;;
35026;SDS011;60696;51.426;6.934;2023-02-19T14:54:19;10.05;;;4.68;;
35026;SDS011;60696;51.426;6.934;2023-02-19T14:56:57;8.52;;;4.32;;
35026;SDS011;60696;51.426;6.934;2023-02-19T14:59:25;10.35;;;4.53;;
35026;SDS011;60696;51.426;6.934;2023-02-19T15:01:56;8.65;;;4.75;;
35026;SDS011;60696;51.426;6.934;2023-02-19T15:04:26;7.22;;;5.00;;
35026;SDS011;60696;51.426;6.934;2023-02-19T15:06:55;8.32;;;4.68;;
35026;SDS011;60696;51.426;6.934;2023-02-19T15:09:23;8.90;;;4.97;;
35026;SDS011;60696;51.426;6.934;2023-02-19T15:11:57;10.40;;;4.95;;
35026;SDS011;60696;51.426;6.934;2023-02-19T15:14:24;10.30;;;5.20;;
35026;SDS011;60696;51.426;6.934;2023-02-19T15:16:56;7.25;;;5.20;;
35026;SDS011;60696;51.426;6.934;2023-02-19T15:19:25;11.18;;;5.63;;
35026;SDS011;60696;51.426;6.934;2023-02-19T15:21:52;9.55;;;5.82;;
35026;SDS011;60696;51.426;6.934;2023-02-19T15:24:19;10.60;;;6.47;;
35026;SDS011;60696;51.426;6.934;2023-02-19T15:26:49;12.20;;;6.45;;
35026;SDS011;60696;51.426;6.934;2023-02-19T15:29:17;12.90;;;6.45;;
35026;SDS011;60696;51.426;6.934;2023-02-19T15:31:49;11.38;;;6.25;;
35026;SDS011;60696;51.426;6.934;2023-02-19T15:34:20;10.10;;;6.10;;
35026;SDS011;60696;51.426;6.934;2023-02-19T15:37:03;8.70;;;6.28;;
35026;SDS011;60696;51.426;6.934;2023-02-19T15:39:42;15.82;;;6.72;;
35026;SDS011;60696;51.426;6.934;2023-02-19T15:42:14;9.75;;;5.85;;
35026;SDS011;60696;51.426;6.934;2023-02-19T15:44:46;10.75;;;6.38;;
35026;SDS011;60696;51.426;6.934;2023-02-19T15:47:25;13.10;;;6.40;;
35026;SDS011;60696;51.426;6.934;2023-02-19T15:55:34;11.70;;;6.35;;
35026;SDS011;60696;51.426;6.934;2023-02-19T15:58:05;10.20;;;6.90;;
35026;SDS011;60696;51.426;6.934;2023-02-19T16:00:47;10.57;;;7.28;;
35026;SDS011;60696;51.426;6.934;2023-02-19T16:03:22;10.63;;;6.72;;
35026;SDS011;60696;51.426;6.934;2023-02-19T16:05:59;11.77;;;7.10;;
35026;SDS011;60696;51.426;6.934;2023-02-19T16:08:39;14.00;;;6.88;;
35026;SDS011;60696;51.426;6.934;2023-02-19T16:13:47;11.37;;;6.60;;
35026;SDS011;60696;51.426;6.934;2023-02-19T16:18:58;12.73;;;6.38;;
35026;SDS011;60696;51.426;6.934;2023-02-19T16:21:25;11.90;;;7.22;;
35026;SDS011;60696;51.426;6.934;2023-02-19T16:23:52;10.23;;;6.28;;
35026;SDS011;60696;51.426;6.934;2023-02-19T16:26:25;13.13;;;6.60;;
35026;SDS011;60696;51.426;6.934;2023-02-19T16:28:52;10.05;;;5.57;;
35026;SDS011;60696;51.426;6.934;2023-02-19T16:31:19;8.77;;;5.07;;
35026;SDS011;60696;51.426;6.934;2023-02-19T16:33:46;9.32;;;4.95;;
35026;SDS011;60696;51.426;6.934;2023-02-19T16:38:58;10.48;;;3.72;;
35026;SDS011;60696;51.426;6.934;2023-02-19T16:42:18;3.45;;;2.40;;
35026;SDS011;60696;51.426;6.934;2023-02-19T16:46:56;2.60;;;1.58;;
35026;SDS011;60696;51.426;6.934;2023-02-19T16:49:24;4.63;;;2.22;;
35026;SDS011;60696;51.426;6.934;2023-02-19T16:51:50;2.20;;;1.58;;
35026;SDS011;60696;51.426;6.934;2023-02-19T16:54:16;5.68;;;1.67;;
35026;SDS011;60696;51.426;6.934;2023-02-19T16:56:41;2.70;;;1.52;;
35026;SDS011;60696;51.426;6.934;2023-02-19T16:59:07;7.20;;;2.05;;
35026;SDS011;60696;51.426;6.934;2023-02-19T17:01:35;1.75;;;1.55;;
35026;SDS011;60696;51.426;6.934;2023-02-19T17:04:03;3.50;;;1.73;;
35026;SDS011;60696;51.426;6.934;2023-02-19T17:06:35;2.92;;;1.80;;
35026;SDS011;60696;51.426;6.934;2023-02-19T17:09:04;2.63;;;1.60;;
35026;SDS011;60696;51.426;6.934;2023-02-19T17:11:32;3.78;;;2.10;;
35026;SDS011;60696;51.426;6.934;2023-02-19T17:13:58;4.20;;;2.38;;
35026;SDS011;60696;51.426;6.934;2023-02-19T17:16:25;5.43;;;2.70;;
35026;SDS011;60696;51.426;6.934;2023-02-19T17:18:52;8.27;;;2.90;;
35026;SDS011;60696;51.426;6.934;2023-02-19T17:21:24;4.03;;;2.30;;